sensor_id;sensor_type;location;lat;lon;timestamp;P1;durP1;ratioP1;P2;durP2;ratioP2
75700;SDS011;64321;48.796;44.740;2023-04-25T00:02:40;6.35;;;2.53;;
75700;SDS011;64321;48.796;44.740;2023-04-25T00:14:35;6.15;;;2.35;;
75700;SDS011;64321;48.796;44.740;2023-04-25T00:20:14;6.57;;;2.40;;
75700;SDS011;64321;48.796;44.740;2023-04-25T00:25:39;7.90;;;2.75;;
75700;SDS011;64321;48.796;44.740;2023-04-25T00:31:30;8.85;;;2.92;;
75700;SDS011;64321;48.796;44.740;2023-04-25T00:36:50;5.20;;;2.33;;
75700;SDS011;64321;48.796;44.740;2023-04-25T00:42:29;7.35;;;2.90;;
75700;SDS011;64321;48.796;44.740;2023-04-25T00:48:06;6.60;;;2.42;;
75700;SDS011;64321;48.796;44.740;2023-04-25T01:05:42;6.38;;;2.15;;
75700;SDS011;64321;48.796;44.740;2023-04-25T01:12:01;6.90;;;3.10;;
75700;SDS011;64321;48.796;44.740;2023-04-25T01:17:50;9.38;;;3.33;;
75700;SDS011;64321;48.796;44.740;2023-04-25T01:23:14;9.82;;;2.78;;
75700;SDS011;64321;48.796;44.740;2023-04-25T01:28:29;5.30;;;2.67;;
75700;SDS011;64321;48.796;44.740;2023-04-25T01:34:11;6.50;;;3.25;;
75700;SDS011;64321;48.796;44.740;2023-04-25T01:46:09;10.13;;;3.45;;
75700;SDS011;64321;48.796;44.740;2023-04-25T01:51:32;8.75;;;3.00;;
75700;SDS011;64321;48.796;44.740;2023-04-25T01:57:10;6.97;;;2.47;;
75700;SDS011;64321;48.796;44.740;2023-04-25T02:02:47;8.85;;;2.60;;
75700;SDS011;64321;48.796;44.740;2023-04-25T02:08:36;6.28;;;3.00;;
75700;SDS011;64321;48.796;44.740;2023-04-25T02:14:58;6.05;;;2.95;;
75700;SDS011;64321;48.796;44.740;2023-04-25T02:21:00;8.40;;;2.53;;
75700;SDS011;64321;48.796;44.740;2023-04-25T02:26:47;10.70;;;2.95;;
75700;SDS011;64321;48.796;44.740;2023-04-25T02:32:55;10.05;;;3.65;;
75700;SDS011;64321;48.796;44.740;2023-04-25T02:44:15;8.82;;;3.67;;
75700;SDS011;64321;48.796;44.740;2023-04-25T02:49:25;10.00;;;3.60;;
75700;SDS011;64321;48.796;44.740;2023-04-25T02:55:46;12.18;;;3.85;;
75700;SDS011;64321;48.796;44.740;2023-04-25T03:01:11;14.88;;;5.50;;
75700;SDS011;64321;48.796;44.740;2023-04-25T03:07:15;18.10;;;4.95;;
75700;SDS011;64321;48.796;44.740;2023-04-25T03:12:40;16.70;;;5.47;;
75700;SDS011;64321;48.796;44.740;2023-04-25T03:18:23;13.43;;;4.72;;
75700;SDS011;64321;48.796;44.740;2023-04-25T03:24:35;13.57;;;4.75;;
75700;SDS011;64321;48.796;44.740;2023-04-25T03:30:17;8.35;;;3.65;;
75700;SDS011;64321;48.796;44.740;2023-04-25T03:41:52;13.75;;;5.25;;
75700;SDS011;64321;48.796;44.740;2023-04-25T03:53:01;14.38;;;6.78;;
75700;SDS011;64321;48.796;44.740;2023-04-25T03:59:06;17.65;;;7.00;;
75700;SDS011;64321;48.796;44.740;2023-04-25T04:04:39;18.58;;;7.18;;
75700;SDS011;64321;48.796;44.740;2023-04-25T04:10:09;24.70;;;8.63;;
75700;SDS011;64321;48.796;44.740;2023-04-25T04:15:57;21.60;;;8.98;;
75700;SDS011;64321;48.796;44.740;2023-04-25T04:21:48;14.50;;;6.50;;
75700;SDS011;64321;48.796;44.740;2023-04-25T04:27:35;15.05;;;6.47;;
75700;SDS011;64321;48.796;44.740;2023-04-25T04:39:12;10.02;;;3.78;;
75700;SDS011;64321;48.796;44.740;2023-04-25T04:45:27;7.57;;;3.08;;
75700;SDS011;64321;48.796;44.740;2023-04-25T04:51:05;7.45;;;2.88;;
75700;SDS011;64321;48.796;44.740;2023-04-25T04:56:46;8.93;;;3.13;;
75700;SDS011;64321;48.796;44.740;2023-04-25T05:02:24;8.55;;;3.05;;
75700;SDS011;64321;48.796;44.740;2023-04-25T05:08:19;11.35;;;3.75;;
75700;SDS011;64321;48.796;44.740;2023-04-25T05:14:18;9.88;;;3.83;;
75700;SDS011;64321;48.796;44.740;2023-04-25T05:20:07;8.57;;;3.50;;
75700;SDS011;64321;48.796;44.740;2023-04-25T05:26:14;8.25;;;3.33;;
75700;SDS011;64321;48.796;44.740;2023-04-25T05:38:09;8.85;;;3.03;;
75700;SDS011;64321;48.796;44.740;2023-04-25T05:50:26;7.18;;;3.03;;
75700;SDS011;64321;48.796;44.740;2023-04-25T06:02:31;7.93;;;2.88;;
75700;SDS011;64321;48.796;44.740;2023-04-25T06:08:10;8.18;;;2.90;;
75700;SDS011;64321;48.796;44.740;2023-04-25T06:13:45;10.48;;;3.50;;
75700;SDS011;64321;48.796;44.740;2023-04-25T06:19:36;9.35;;;4.13;;
75700;SDS011;64321;48.796;44.740;2023-04-25T06:25:03;10.82;;;3.47;;
75700;SDS011;64321;48.796;44.740;2023-04-25T06:31:07;8.57;;;3.25;;
75700;SDS011;64321;48.796;44.740;2023-04-25T06:36:47;12.15;;;3.55;;
75700;SDS011;64321;48.796;44.740;2023-04-25T06:43:01;5.80;;;3.22;;
75700;SDS011;64321;48.796;44.740;2023-04-25T06:49:10;10.18;;;4.35;;
75700;SDS011;64321;48.796;44.740;2023-04-25T06:55:12;5.97;;;3.35;;
75700;SDS011;64321;48.796;44.740;2023-04-25T07:01:20;8.88;;;4.30;;
75700;SDS011;64321;48.796;44.740;2023-04-25T07:07:41;11.00;;;4.38;;
75700;SDS011;64321;48.796;44.740;2023-04-25T07:13:08;11.55;;;4.70;;
75700;SDS011;64321;48.796;44.740;2023-04-25T07:18:23;8.93;;;4.40;;
75700;SDS011;64321;48.796;44.740;2023-04-25T07:24:20;12.15;;;5.07;;
75700;SDS011;64321;48.796;44.740;2023-04-25T07:29:36;11.57;;;4.78;;
75700;SDS011;64321;48.796;44.740;2023-04-25T07:35:41;9.82;;;4.78;;
75700;SDS011;64321;48.796;44.740;2023-04-25T07:42:21;8.90;;;4.75;;
75700;SDS011;64321;48.796;44.740;2023-04-25T07:54:47;12.18;;;4.88;;
75700;SDS011;64321;48.796;44.740;2023-04-25T08:00:52;9.73;;;3.67;;
75700;SDS011;64321;48.796;44.740;2023-04-25T08:07:06;8.85;;;4.78;;
75700;SDS011;64321;48.796;44.740;2023-04-25T08:12:58;9.10;;;4.40;;
75700;SDS011;64321;48.796;44.740;2023-04-25T08:18:25;11.63;;;4.88;;
75700;SDS011;64321;48.796;44.740;2023-04-25T08:23:54;8.63;;;4.25;;
75700;SDS011;64321;48.796;44.740;2023-04-25T08:35:24;9.65;;;4.55;;
75700;SDS011;64321;48.796;44.740;2023-04-25T08:41:00;15.23;;;4.80;;
75700;SDS011;64321;48.796;44.740;2023-04-25T08:46:25;11.93;;;4.47;;
75700;SDS011;64321;48.796;44.740;2023-04-25T08:52:21;10.52;;;5.00;;
75700;SDS011;64321;48.796;44.740;2023-04-25T08:58:03;8.73;;;4.10;;
75700;SDS011;64321;48.796;44.740;2023-04-25T09:03:58;10.05;;;5.05;;
75700;SDS011;64321;48.796;44.740;2023-04-25T09:09:26;10.63;;;5.07;;
75700;SDS011;64321;48.796;44.740;2023-04-25T09:27:48;12.82;;;3.88;;
75700;SDS011;64321;48.796;44.740;2023-04-25T09:33:34;8.50;;;3.53;;
75700;SDS011;64321;48.796;44.740;2023-04-25T09:58:55;10.25;;;3.22;;
75700;SDS011;64321;48.796;44.740;2023-04-25T10:04:56;8.55;;;3.67;;
75700;SDS011;64321;48.796;44.740;2023-04-25T10:11:06;10.27;;;3.35;;
75700;SDS011;64321;48.796;44.740;2023-04-25T10:16:35;13.65;;;3.40;;
75700;SDS011;64321;48.796;44.740;2023-04-25T10:21:46;8.68;;;3.42;;
75700;SDS011;64321;48.796;44.740;2023-04-25T10:26:54;8.05;;;3.72;;
75700;SDS011;64321;48.796;44.740;2023-04-25T10:32:02;11.45;;;3.30;;
75700;SDS011;64321;48.796;44.740;2023-04-25T10:37:05;7.30;;;2.95;;
75700;SDS011;64321;48.796;44.740;2023-04-25T10:42:10;6.18;;;2.55;;
75700;SDS011;64321;48.796;44.740;2023-04-25T10:47:13;7.68;;;2.97;;
75700;SDS011;64321;48.796;44.740;2023-04-25T10:52:39;6.15;;;2.85;;
75700;SDS011;64321;48.796;44.740;2023-04-25T10:57:44;11.27;;;3.25;;
75700;SDS011;64321;48.796;44.740;2023-04-25T11:02:51;8.55;;;2.38;;
75700;SDS011;64321;48.796;44.740;2023-04-25T11:07:55;8.85;;;2.25;;
75700;SDS011;64321;48.796;44.740;2023-04-25T11:13:09;6.25;;;2.13;;
75700;SDS011;64321;48.796;44.740;2023-04-25T11:18:15;10.02;;;2.40;;
75700;SDS011;64321;48.796;44.740;2023-04-25T11:23:19;5.80;;;2.00;;
75700;SDS011;64321;48.796;44.740;2023-04-25T11:28:22;8.88;;;2.38;;
75700;SDS011;64321;48.796;44.740;2023-04-25T11:33:27;6.60;;;2.28;;
75700;SDS011;64321;48.796;44.740;2023-04-25T11:38:31;7.38;;;2.40;;
75700;SDS011;64321;48.796;44.740;2023-04-25T11:43:36;6.68;;;2.25;;
75700;SDS011;64321;48.796;44.740;2023-04-25T11:49:05;6.00;;;2.17;;
75700;SDS011;64321;48.796;44.740;2023-04-25T11:54:48;3.10;;;1.60;;
75700;SDS011;64321;48.796;44.740;2023-04-25T12:00:20;5.90;;;1.35;;
75700;SDS011;64321;48.796;44.740;2023-04-25T12:05:37;2.67;;;1.30;;
75700;SDS011;64321;48.796;44.740;2023-04-25T12:11:19;4.57;;;1.48;;
75700;SDS011;64321;48.796;44.740;2023-04-25T12:17:07;2.67;;;1.23;;
75700;SDS011;64321;48.796;44.740;2023-04-25T12:22:25;2.40;;;1.48;;
75700;SDS011;64321;48.796;44.740;2023-04-25T12:28:24;5.22;;;1.70;;
75700;SDS011;64321;48.796;44.740;2023-04-25T12:34:08;3.25;;;1.38;;
75700;SDS011;64321;48.796;44.740;2023-04-25T12:39:30;2.88;;;1.60;;
75700;SDS011;64321;48.796;44.740;2023-04-25T12:45:21;2.53;;;1.40;;
75700;SDS011;64321;48.796;44.740;2023-04-25T12:50:34;3.22;;;1.35;;
75700;SDS011;64321;48.796;44.740;2023-04-25T12:56:17;4.72;;;2.17;;
75700;SDS011;64321;48.796;44.740;2023-04-25T13:01:47;2.67;;;1.25;;
75700;SDS011;64321;48.796;44.740;2023-04-25T13:07:14;3.78;;;1.08;;
75700;SDS011;64321;48.796;44.740;2023-04-25T13:13:03;3.58;;;1.50;;
75700;SDS011;64321;48.796;44.740;2023-04-25T13:18:55;3.75;;;1.90;;
75700;SDS011;64321;48.796;44.740;2023-04-25T13:24:36;5.95;;;4.30;;
75700;SDS011;64321;48.796;44.740;2023-04-25T13:30:15;6.70;;;2.20;;
75700;SDS011;64321;48.796;44.740;2023-04-25T13:41:58;6.63;;;1.42;;
75700;SDS011;64321;48.796;44.740;2023-04-25T13:47:45;3.30;;;1.25;;
75700;SDS011;64321;48.796;44.740;2023-04-25T13:53:29;2.33;;;1.05;;
75700;SDS011;64321;48.796;44.740;2023-04-25T13:59:10;2.10;;;0.80;;
75700;SDS011;64321;48.796;44.740;2023-04-25T14:05:09;2.13;;;1.00;;
75700;SDS011;64321;48.796;44.740;2023-04-25T14:16:00;2.22;;;0.88;;
75700;SDS011;64321;48.796;44.740;2023-04-25T14:21:34;3.00;;;1.05;;
75700;SDS011;64321;48.796;44.740;2023-04-25T14:26:40;2.75;;;0.75;;
75700;SDS011;64321;48.796;44.740;2023-04-25T14:33:00;1.92;;;1.27;;
75700;SDS011;64321;48.796;44.740;2023-04-25T14:38:24;1.85;;;0.73;;
75700;SDS011;64321;48.796;44.740;2023-04-25T14:43:27;1.52;;;0.70;;
75700;SDS011;64321;48.796;44.740;2023-04-25T14:48:33;1.77;;;0.52;;
75700;SDS011;64321;48.796;44.740;2023-04-25T14:53:40;1.95;;;0.85;;
75700;SDS011;64321;48.796;44.740;2023-04-25T14:58:46;2.70;;;0.73;;
75700;SDS011;64321;48.796;44.740;2023-04-25T15:03:49;2.70;;;0.40;;
75700;SDS011;64321;48.796;44.740;2023-04-25T15:08:54;1.85;;;0.63;;
75700;SDS011;64321;48.796;44.740;2023-04-25T15:14:01;1.00;;;0.47;;
75700;SDS011;64321;48.796;44.740;2023-04-25T15:19:06;1.73;;;0.50;;
75700;SDS011;64321;48.796;44.740;2023-04-25T15:29:35;1.10;;;0.73;;
75700;SDS011;64321;48.796;44.740;2023-04-25T15:39:50;0.77;;;0.35;;
75700;SDS011;64321;48.796;44.740;2023-04-25T15:50:54;0.73;;;0.30;;
75700;SDS011;64321;48.796;44.740;2023-04-25T15:56:04;1.20;;;0.50;;
75700;SDS011;64321;48.796;44.740;2023-04-25T16:01:19;1.23;;;0.60;;
75700;SDS011;64321;48.796;44.740;2023-04-25T16:06:42;1.35;;;0.70;;
75700;SDS011;64321;48.796;44.740;2023-04-25T16:12:30;1.38;;;0.43;;
75700;SDS011;64321;48.796;44.740;2023-04-25T16:18:18;1.60;;;0.73;;
75700;SDS011;64321;48.796;44.740;2023-04-25T16:23:42;4.50;;;0.82;;
75700;SDS011;64321;48.796;44.740;2023-04-25T16:29:11;2.40;;;1.05;;
75700;SDS011;64321;48.796;44.740;2023-04-25T16:40:53;1.38;;;0.68;;
75700;SDS011;64321;48.796;44.740;2023-04-25T16:52:20;2.33;;;1.02;;
75700;SDS011;64321;48.796;44.740;2023-04-25T16:57:48;4.53;;;1.20;;
75700;SDS011;64321;48.796;44.740;2023-04-25T17:03:04;4.18;;;0.82;;
75700;SDS011;64321;48.796;44.740;2023-04-25T17:08:49;3.65;;;1.00;;
75700;SDS011;64321;48.796;44.740;2023-04-25T17:14:32;3.20;;;0.77;;
75700;SDS011;64321;48.796;44.740;2023-04-25T17:20:21;1.73;;;0.70;;
75700;SDS011;64321;48.796;44.740;2023-04-25T17:25:38;3.85;;;1.00;;
75700;SDS011;64321;48.796;44.740;2023-04-25T17:31:19;2.17;;;0.60;;
75700;SDS011;64321;48.796;44.740;2023-04-25T17:37:20;2.67;;;0.63;;
75700;SDS011;64321;48.796;44.740;2023-04-25T17:43:23;2.83;;;1.00;;
75700;SDS011;64321;48.796;44.740;2023-04-25T17:48:39;1.92;;;0.90;;
75700;SDS011;64321;48.796;44.740;2023-04-25T17:54:47;3.25;;;1.45;;
75700;SDS011;64321;48.796;44.740;2023-04-25T18:06:17;2.25;;;0.95;;
75700;SDS011;64321;48.796;44.740;2023-04-25T18:11:55;4.65;;;1.23;;
75700;SDS011;64321;48.796;44.740;2023-04-25T18:17:19;4.32;;;1.17;;
75700;SDS011;64321;48.796;44.740;2023-04-25T18:22:52;3.42;;;1.55;;
75700;SDS011;64321;48.796;44.740;2023-04-25T18:29:07;5.82;;;1.55;;
75700;SDS011;64321;48.796;44.740;2023-04-25T18:34:49;3.92;;;1.48;;
75700;SDS011;64321;48.796;44.740;2023-04-25T18:40:12;6.88;;;1.30;;
75700;SDS011;64321;48.796;44.740;2023-04-25T18:46:04;4.45;;;1.67;;
75700;SDS011;64321;48.796;44.740;2023-04-25T18:51:57;4.68;;;1.85;;
75700;SDS011;64321;48.796;44.740;2023-04-25T18:57:37;4.70;;;1.88;;
75700;SDS011;64321;48.796;44.740;2023-04-25T19:03:16;4.10;;;1.65;;
75700;SDS011;64321;48.796;44.740;2023-04-25T19:09:09;4.10;;;1.50;;
75700;SDS011;64321;48.796;44.740;2023-04-25T19:14:41;5.47;;;1.80;;
75700;SDS011;64321;48.796;44.740;2023-04-25T19:20:40;2.58;;;1.60;;
75700;SDS011;64321;48.796;44.740;2023-04-25T19:26:58;2.55;;;1.17;;
75700;SDS011;64321;48.796;44.740;2023-04-25T19:32:27;2.38;;;1.23;;
75700;SDS011;64321;48.796;44.740;2023-04-25T19:38:30;2.83;;;1.33;;
75700;SDS011;64321;48.796;44.740;2023-04-25T19:44:01;3.88;;;1.42;;
75700;SDS011;64321;48.796;44.740;2023-04-25T19:49:40;3.65;;;1.75;;
75700;SDS011;64321;48.796;44.740;2023-04-25T19:55:08;3.40;;;1.85;;
75700;SDS011;64321;48.796;44.740;2023-04-25T20:00:44;3.45;;;1.42;;
75700;SDS011;64321;48.796;44.740;2023-04-25T20:06:57;2.88;;;1.42;;
75700;SDS011;64321;48.796;44.740;2023-04-25T20:12:33;4.47;;;1.67;;
75700;SDS011;64321;48.796;44.740;2023-04-25T20:18:00;3.75;;;1.73;;
75700;SDS011;64321;48.796;44.740;2023-04-25T20:23:39;3.10;;;1.60;;
75700;SDS011;64321;48.796;44.740;2023-04-25T20:28:58;2.88;;;1.83;;
75700;SDS011;64321;48.796;44.740;2023-04-25T20:34:20;3.10;;;1.52;;
75700;SDS011;64321;48.796;44.740;2023-04-25T20:39:51;3.70;;;1.55;;
75700;SDS011;64321;48.796;44.740;2023-04-25T20:45:31;3.53;;;1.75;;
75700;SDS011;64321;48.796;44.740;2023-04-25T20:51:07;3.92;;;2.17;;
75700;SDS011;64321;48.796;44.740;2023-04-25T20:57:12;3.35;;;1.80;;
75700;SDS011;64321;48.796;44.740;2023-04-25T21:03:11;4.50;;;2.03;;
75700;SDS011;64321;48.796;44.740;2023-04-25T21:08:46;6.05;;;2.17;;
75700;SDS011;64321;48.796;44.740;2023-04-25T21:14:04;4.15;;;2.08;;
75700;SDS011;64321;48.796;44.740;2023-04-25T21:19:36;4.50;;;2.08;;
75700;SDS011;64321;48.796;44.740;2023-04-25T21:25:23;4.40;;;1.98;;
75700;SDS011;64321;48.796;44.740;2023-04-25T21:31:32;5.40;;;2.88;;
75700;SDS011;64321;48.796;44.740;2023-04-25T21:36:55;5.90;;;2.15;;
75700;SDS011;64321;48.796;44.740;2023-04-25T21:42:37;6.07;;;2.28;;
75700;SDS011;64321;48.796;44.740;2023-04-25T21:48:16;5.88;;;2.58;;
75700;SDS011;64321;48.796;44.740;2023-04-25T21:53:37;4.25;;;2.35;;
75700;SDS011;64321;48.796;44.740;2023-04-25T21:59:22;5.43;;;2.42;;
75700;SDS011;64321;48.796;44.740;2023-04-25T22:04:50;5.38;;;2.85;;
75700;SDS011;64321;48.796;44.740;2023-04-25T22:16:13;4.88;;;2.83;;
75700;SDS011;64321;48.796;44.740;2023-04-25T22:21:54;5.70;;;3.35;;
75700;SDS011;64321;48.796;44.740;2023-04-25T22:27:38;4.53;;;2.58;;
75700;SDS011;64321;48.796;44.740;2023-04-25T22:33:25;7.57;;;3.13;;
75700;SDS011;64321;48.796;44.740;2023-04-25T22:39:37;7.05;;;3.78;;
75700;SDS011;64321;48.796;44.740;2023-04-25T22:45:37;8.07;;;4.25;;
75700;SDS011;64321;48.796;44.740;2023-04-25T22:51:11;8.20;;;4.20;;
75700;SDS011;64321;48.796;44.740;2023-04-25T22:57:20;8.23;;;4.47;;
75700;SDS011;64321;48.796;44.740;2023-04-25T23:03:10;7.68;;;4.35;;
75700;SDS011;64321;48.796;44.740;2023-04-25T23:08:33;7.30;;;4.43;;
75700;SDS011;64321;48.796;44.740;2023-04-25T23:14:17;7.53;;;4.18;;
75700;SDS011;64321;48.796;44.740;2023-04-25T23:19:45;9.40;;;4.60;;
75700;SDS011;64321;48.796;44.740;2023-04-25T23:25:15;8.80;;;5.13;;
75700;SDS011;64321;48.796;44.740;2023-04-25T23:31:11;10.07;;;6.07;;
75700;SDS011;64321;48.796;44.740;2023-04-25T23:36:38;10.63;;;6.18;;
75700;SDS011;64321;48.796;44.740;2023-04-25T23:43:00;8.82;;;5.93;;
75700;SDS011;64321;48.796;44.740;2023-04-25T23:48:30;10.43;;;5.88;;
75700;SDS011;64321;48.796;44.740;2023-04-25T23:54:14;13.52;;;6.55;;
